Airfield :
LOGIN :

Register | Disclaimer

   EN    FR    IT 

 










Legend :    VFR   Marginal VFR   IFR   Intensive IFR   Very Intensive IFR
Visi :
Ceiling :
>= 8 km
>= 3000ft
5 to 8 km
1000 to 3000 ft
1500m to 5 km
500 to 1000 ft
800 to 1500m
200 to 500 ft
< 800m
< 200 ft
Symbols :   Thunderstorms  Fog  Heavy snow  Heavy precipitations  Wind > 20 kt
SIGMETs :     Misc.  Thunderstorms  Icing  Turbulence  Mountain Waves  Volcanic Ashes






- Airport Elevation : 87 ft
- IATA code : FSC


LFKF - Figari

CURRENT METAR :
  • 021300Z AUTO 06014KT 9999 FEW036 14/07 Q1014 NOSIG

EXPIRED METARs :
  • 021230Z AUTO 05013KT 9999 FEW035 BKN064 14/07 Q1014 NOSIG
  • 021200Z AUTO 06010KT 9999 SCT035 BKN048 BKN062 13/08 Q1015 NOSIG
  • 021130Z AUTO 06011KT 9999 FEW036 SCT058 BKN076 14/08 Q1015 NOSIG
  • 021100Z AUTO 06012KT 040V110 9999 FEW038 SCT048 BKN054 14/08 Q1015 NOSIG
  • 021030Z AUTO 05011KT 9999 FEW038 SCT045 BKN058 13/07 Q1016 NOSIG

TAF TAF LFKF
Valid from the 02 at 09:00 until the 03 at 09:00 UTC


020800Z 0209/0309 06010KT 9999 FEW025 BKN040
TEMPO 0221/0224 06015G25KT SHRA FEW025TCU BKN040



MET'MAP, your aeronautical weather chart ! - Copyright ORBIFLY December 2007 - Disclaimer

ORBIFLY MET'MAP TEAM :

Programming & Development : Alexandra Zaïnal
Original concept : Baudouin d'Aumeries
Technical & hardware support : Manuel Goepfert
Assistance : Marc-Olivier Méhu




SOURCES & CREDITS :

   NOAA